PWSweather.com
Personal Weather Stations
Station Observations
IMAZOWIE6
WarszawaPL

WarszawaPL

Lat: 52.27957, Lon: 21.05489

Elevation: 100

Station Type: WS1080

http://stacjapogody.waw.pl/

High Low Average
Temperature 95.2°F35.1°C 68.7°F20.4°C 84.7°F29.3°C
Dew Point 10.9°F-11.7°C -165.9°F-109.9°C -162.4°F-108.0°C
Winds 3.4 mph 5.5 kmh Calm Calm 1.0 mph N1.6 kmh N
Wind Gusts 8.8 mph14.2 kmh -- 3.0 mph4.8 kmh
Humidity 10% 10% 10%
Pressure 29.72 in1006.4 mb 29.56 in1001.0 mb -
Precipitation 0.00 in0.0 mm - -
Hour Temp Dew Point Humidity Winds Wind Gusts Pressure Precip Precip Rate Daily Precip Total
12:06 AM 73.2°F22.9°C -165.5°F-109.7°C - Calm Calm -- 29.70 in1005.8 mb 0.00 in0.0 mm 0.00 in0.0 mm 0.00 in0.0 mm
12:21 AM 72.5°F22.5°C -165.6°F-109.8°C - Calm Calm -- 29.69 in1005.4 mb 0.00 in0.0 mm 0.00 in0.0 mm 0.00 in0.0 mm
12:36 AM 72.0°F22.2°C -165.6°F-109.8°C - Calm Calm -- 29.70 in1005.8 mb 0.00 in0.0 mm 0.00 in0.0 mm 0.00 in0.0 mm
12:51 AM 71.6°F22.0°C -165.6°F-109.8°C - Calm Calm -- 29.69 in1005.4 mb 0.00 in0.0 mm 0.00 in0.0 mm 0.00 in0.0 mm
01:06 AM 71.2°F21.8°C -165.7°F-109.8°C - Calm Calm 0.6 mph1.0 kmh 29.69 in1005.4 mb 0.00 in0.0 mm 0.00 in0.0 mm 0.00 in0.0 mm
01:21 AM 70.9°F21.6°C -165.7°F-109.8°C - Calm Calm 0.6 mph1.0 kmh 29.69 in1005.4 mb 0.00 in0.0 mm 0.00 in0.0 mm 0.00 in0.0 mm
01:36 AM 70.3°F21.3°C -165.8°F-109.9°C - Calm Calm 0.6 mph1.0 kmh 29.69 in1005.4 mb 0.00 in0.0 mm 0.00 in0.0 mm 0.00 in0.0 mm
01:51 AM 69.8°F21.0°C -165.8°F-109.9°C - Calm Calm -- 29.70 in1005.8 mb 0.00 in0.0 mm 0.00 in0.0 mm 0.00 in0.0 mm
02:06 AM 69.6°F20.9°C -165.8°F-109.9°C - Calm Calm -- 29.70 in1005.8 mb 0.00 in0.0 mm 0.00 in0.0 mm 0.00 in0.0 mm
02:22 AM 69.4°F20.8°C -165.9°F-109.9°C - Calm Calm -- 29.71 in1006.1 mb 0.00 in0.0 mm 0.00 in0.0 mm 0.00 in0.0 mm
02:37 AM 69.1°F20.6°C -165.9°F-109.9°C - Calm Calm 0.6 mph1.0 kmh 29.70 in1005.8 mb 0.00 in0.0 mm 0.00 in0.0 mm 0.00 in0.0 mm
02:52 AM 68.9°F20.5°C -165.9°F-109.9°C - Calm Calm -- 29.70 in1005.8 mb 0.00 in0.0 mm 0.00 in0.0 mm 0.00 in0.0 mm
03:06 AM 68.7°F20.4°C -165.9°F-109.9°C - Calm Calm 0.6 mph1.0 kmh 29.70 in1005.8 mb 0.00 in0.0 mm 0.00 in0.0 mm 0.00 in0.0 mm
03:21 AM 68.7°F20.4°C -165.9°F-109.9°C - Calm Calm 2.0 mph3.2 kmh 29.70 in1005.8 mb 0.00 in0.0 mm 0.00 in0.0 mm 0.00 in0.0 mm
03:36 AM 68.9°F20.5°C -165.9°F-109.9°C - Calm Calm 2.0 mph3.2 kmh 29.70 in1005.8 mb 0.00 in0.0 mm 0.00 in0.0 mm 0.00 in0.0 mm
03:51 AM 68.9°F20.5°C -165.9°F-109.9°C - Calm Calm 0.6 mph1.0 kmh 29.70 in1005.8 mb 0.00 in0.0 mm 0.00 in0.0 mm 0.00 in0.0 mm
04:06 AM 69.3°F20.7°C -165.9°F-109.9°C - Calm Calm 1.4 mph2.3 kmh 29.70 in1005.8 mb 0.00 in0.0 mm 0.00 in0.0 mm 0.00 in0.0 mm
04:21 AM 69.8°F21.0°C 10.9°F-11.7°C 10% Calm Calm 0.6 mph1.0 kmh 29.70 in1005.8 mb 0.00 in0.0 mm 0.00 in0.0 mm 0.00 in0.0 mm
04:36 AM 70.7°F21.5°C -165.7°F-109.8°C - Calm Calm 0.6 mph1.0 kmh 29.70 in1005.8 mb 0.00 in0.0 mm 0.00 in0.0 mm 0.00 in0.0 mm
04:51 AM 71.1°F21.7°C -165.7°F-109.8°C - Calm Calm 0.6 mph1.0 kmh 29.70 in1005.8 mb 0.00 in0.0 mm 0.00 in0.0 mm 0.00 in0.0 mm
05:06 AM 71.8°F22.1°C -165.6°F-109.8°C - 0.6 mph N1.0 kmh N 2.8 mph4.5 kmh 29.70 in1005.8 mb 0.00 in0.0 mm 0.00 in0.0 mm 0.00 in0.0 mm
05:21 AM 73.2°F22.9°C -165.5°F-109.7°C - 0.6 mph N1.0 kmh N 2.0 mph3.2 kmh 29.71 in1006.1 mb 0.00 in0.0 mm 0.00 in0.0 mm 0.00 in0.0 mm
05:36 AM 73.4°F23.0°C -165.5°F-109.7°C - Calm Calm 2.0 mph3.2 kmh 29.71 in1006.1 mb 0.00 in0.0 mm 0.00 in0.0 mm 0.00 in0.0 mm
05:51 AM 74.3°F23.5°C -165.4°F-109.7°C - 0.6 mph N1.0 kmh N 2.8 mph4.5 kmh 29.71 in1006.1 mb 0.00 in0.0 mm 0.00 in0.0 mm 0.00 in0.0 mm
06:06 AM 74.3°F23.5°C -165.4°F-109.7°C - Calm Calm 1.4 mph2.3 kmh 29.71 in1006.1 mb 0.00 in0.0 mm 0.00 in0.0 mm 0.00 in0.0 mm
06:21 AM 77.0°F25.0°C -165.1°F-109.5°C - 0.6 mph N1.0 kmh N 2.0 mph3.2 kmh 29.71 in1006.1 mb 0.00 in0.0 mm 0.00 in0.0 mm 0.00 in0.0 mm
06:36 AM 78.3°F25.7°C -165.0°F-109.4°C - 0.6 mph N1.0 kmh N 2.0 mph3.2 kmh 29.71 in1006.1 mb 0.00 in0.0 mm 0.00 in0.0 mm 0.00 in0.0 mm
06:51 AM 80.2°F26.8°C -164.8°F-109.3°C - 1.4 mph N2.3 kmh N 2.0 mph3.2 kmh 29.71 in1006.1 mb 0.00 in0.0 mm 0.00 in0.0 mm 0.00 in0.0 mm
07:06 AM 81.5°F27.5°C -164.7°F-109.3°C - 0.6 mph N1.0 kmh N 2.0 mph3.2 kmh 29.71 in1006.1 mb 0.00 in0.0 mm 0.00 in0.0 mm 0.00 in0.0 mm
07:21 AM 82.2°F27.9°C -164.6°F-109.2°C - 1.4 mph N2.3 kmh N 4.8 mph7.7 kmh 29.71 in1006.1 mb 0.00 in0.0 mm 0.00 in0.0 mm 0.00 in0.0 mm
07:36 AM 82.6°F28.1°C -164.5°F-109.2°C - 1.4 mph N2.3 kmh N 4.0 mph6.4 kmh 29.71 in1006.1 mb 0.00 in0.0 mm 0.00 in0.0 mm 0.00 in0.0 mm
07:51 AM 82.8°F28.2°C -164.5°F-109.2°C - 1.4 mph N2.3 kmh N 3.4 mph5.5 kmh 29.71 in1006.1 mb 0.00 in0.0 mm 0.00 in0.0 mm 0.00 in0.0 mm
08:06 AM 83.3°F28.5°C -164.5°F-109.2°C - 0.6 mph N1.0 kmh N 2.8 mph4.5 kmh 29.71 in1006.1 mb 0.00 in0.0 mm 0.00 in0.0 mm 0.00 in0.0 mm
08:21 AM 85.5°F29.7°C -164.3°F-109.1°C - 1.4 mph N2.3 kmh N 3.4 mph5.5 kmh 29.71 in1006.1 mb 0.00 in0.0 mm 0.00 in0.0 mm 0.00 in0.0 mm
08:36 AM 86.9°F30.5°C -164.1°F-108.9°C - 0.6 mph N1.0 kmh N 2.0 mph3.2 kmh 29.71 in1006.1 mb 0.00 in0.0 mm 0.00 in0.0 mm 0.00 in0.0 mm
08:51 AM 93.0°F33.9°C -163.5°F-108.6°C - 1.4 mph N2.3 kmh N 5.4 mph8.7 kmh 29.72 in1006.4 mb 0.00 in0.0 mm 0.00 in0.0 mm 0.00 in0.0 mm
09:06 AM 88.2°F31.2°C -164.0°F-108.9°C - Calm Calm 2.8 mph4.5 kmh 29.71 in1006.1 mb 0.00 in0.0 mm 0.00 in0.0 mm 0.00 in0.0 mm
09:21 AM 86.7°F30.4°C -164.1°F-108.9°C - 2.0 mph N3.2 kmh N 5.4 mph8.7 kmh 29.71 in1006.1 mb 0.00 in0.0 mm 0.00 in0.0 mm 0.00 in0.0 mm
09:36 AM 87.6°F30.9°C -164.0°F-108.9°C - Calm Calm 1.4 mph2.3 kmh 29.70 in1005.8 mb 0.00 in0.0 mm 0.00 in0.0 mm 0.00 in0.0 mm
09:51 AM 87.1°F30.6°C -164.1°F-108.9°C - 0.6 mph N1.0 kmh N 4.8 mph7.7 kmh 29.70 in1005.8 mb 0.00 in0.0 mm 0.00 in0.0 mm 0.00 in0.0 mm
10:06 AM 87.8°F31.0°C -164.0°F-108.9°C - 1.4 mph N2.3 kmh N 4.0 mph6.4 kmh 29.70 in1005.8 mb 0.00 in0.0 mm 0.00 in0.0 mm 0.00 in0.0 mm
10:21 AM 87.8°F31.0°C -164.0°F-108.9°C - 2.0 mph N3.2 kmh N 4.8 mph7.7 kmh 29.69 in1005.4 mb 0.00 in0.0 mm 0.00 in0.0 mm 0.00 in0.0 mm
10:36 AM 88.9°F31.6°C -163.9°F-108.8°C - 2.0 mph N3.2 kmh N 7.4 mph11.9 kmh 29.69 in1005.4 mb 0.00 in0.0 mm 0.00 in0.0 mm 0.00 in0.0 mm
10:51 AM 90.0°F32.2°C -163.8°F-108.8°C - Calm Calm 2.0 mph3.2 kmh 29.69 in1005.4 mb 0.00 in0.0 mm 0.00 in0.0 mm 0.00 in0.0 mm
11:07 AM 90.3°F32.4°C -163.8°F-108.8°C - 2.0 mph N3.2 kmh N 4.0 mph6.4 kmh 29.70 in1005.8 mb 0.00 in0.0 mm 0.00 in0.0 mm 0.00 in0.0 mm
11:17 AM 91.0°F32.8°C -163.7°F-108.7°C - 0.6 mph N1.0 kmh N 3.4 mph5.5 kmh 29.70 in1005.8 mb 0.00 in0.0 mm 0.00 in0.0 mm 0.00 in0.0 mm
11:33 AM 91.9°F33.3°C -163.6°F-108.7°C - Calm Calm 2.0 mph3.2 kmh 29.69 in1005.4 mb 0.00 in0.0 mm 0.00 in0.0 mm 0.00 in0.0 mm
11:49 AM 91.9°F33.3°C -163.6°F-108.7°C - 0.6 mph N1.0 kmh N 2.8 mph4.5 kmh 29.68 in1005.1 mb 0.00 in0.0 mm 0.00 in0.0 mm 0.00 in0.0 mm
12:05 PM 91.2°F32.9°C -163.7°F-108.7°C - 0.6 mph N1.0 kmh N 2.0 mph3.2 kmh 29.68 in1005.1 mb 0.00 in0.0 mm 0.00 in0.0 mm 0.00 in0.0 mm
12:21 PM 92.5°F33.6°C -163.6°F-108.7°C - 1.4 mph N2.3 kmh N 4.0 mph6.4 kmh 29.69 in1005.4 mb 0.00 in0.0 mm 0.00 in0.0 mm 0.00 in0.0 mm
12:32 PM 93.2°F34.0°C -163.5°F-108.6°C - 3.4 mph N5.5 kmh N 8.8 mph14.2 kmh 29.67 in1004.7 mb 0.00 in0.0 mm 0.00 in0.0 mm 0.00 in0.0 mm
12:48 PM 93.7°F34.3°C -163.4°F-108.6°C - 2.8 mph N4.5 kmh N 6.2 mph10.0 kmh 29.67 in1004.7 mb 0.00 in0.0 mm 0.00 in0.0 mm 0.00 in0.0 mm
01:04 PM 93.7°F34.3°C -163.4°F-108.6°C - 2.0 mph N3.2 kmh N 4.8 mph7.7 kmh 29.66 in1004.4 mb 0.00 in0.0 mm 0.00 in0.0 mm 0.00 in0.0 mm
01:20 PM 94.3°F34.6°C -163.4°F-108.6°C - 2.0 mph N3.2 kmh N 3.4 mph5.5 kmh 29.66 in1004.4 mb 0.00 in0.0 mm 0.00 in0.0 mm 0.00 in0.0 mm
01:36 PM 94.8°F34.9°C -163.3°F-108.5°C - 1.4 mph N2.3 kmh N 3.4 mph5.5 kmh 29.66 in1004.4 mb 0.00 in0.0 mm 0.00 in0.0 mm 0.00 in0.0 mm
01:47 PM 95.0°F35.0°C -163.3°F-108.5°C - 0.6 mph N1.0 kmh N 4.8 mph7.7 kmh 29.65 in1004.1 mb 0.00 in0.0 mm 0.00 in0.0 mm 0.00 in0.0 mm
02:03 PM 95.0°F35.0°C -163.3°F-108.5°C - 2.8 mph N4.5 kmh N 6.2 mph10.0 kmh 29.64 in1003.7 mb 0.00 in0.0 mm 0.00 in0.0 mm 0.00 in0.0 mm
02:19 PM 94.5°F34.7°C -163.4°F-108.6°C - 1.4 mph N2.3 kmh N 3.4 mph5.5 kmh 29.64 in1003.7 mb 0.00 in0.0 mm 0.00 in0.0 mm 0.00 in0.0 mm
02:35 PM 95.0°F35.0°C -163.3°F-108.5°C - 2.0 mph N3.2 kmh N 4.8 mph7.7 kmh 29.63 in1003.4 mb 0.00 in0.0 mm 0.00 in0.0 mm 0.00 in0.0 mm
02:51 PM 95.2°F35.1°C -163.3°F-108.5°C - 0.6 mph N1.0 kmh N 3.4 mph5.5 kmh 29.62 in1003.0 mb 0.00 in0.0 mm 0.00 in0.0 mm 0.00 in0.0 mm
03:06 PM 95.0°F35.0°C -163.3°F-108.5°C - 2.0 mph N3.2 kmh N 6.2 mph10.0 kmh 29.62 in1003.0 mb 0.00 in0.0 mm 0.00 in0.0 mm 0.00 in0.0 mm
03:21 PM 95.0°F35.0°C -163.3°F-108.5°C - 0.6 mph N1.0 kmh N 2.8 mph4.5 kmh 29.62 in1003.0 mb 0.00 in0.0 mm 0.00 in0.0 mm 0.00 in0.0 mm
03:32 PM 95.0°F35.0°C -163.3°F-108.5°C - 0.6 mph N1.0 kmh N 2.0 mph3.2 kmh 29.61 in1002.7 mb 0.00 in0.0 mm 0.00 in0.0 mm 0.00 in0.0 mm
03:48 PM 94.6°F34.8°C -163.3°F-108.5°C - 2.8 mph N4.5 kmh N 5.4 mph8.7 kmh 29.61 in1002.7 mb 0.00 in0.0 mm 0.00 in0.0 mm 0.00 in0.0 mm
04:04 PM 94.6°F34.8°C -163.3°F-108.5°C - 1.4 mph N2.3 kmh N 2.8 mph4.5 kmh 29.61 in1002.7 mb 0.00 in0.0 mm 0.00 in0.0 mm 0.00 in0.0 mm
04:20 PM 94.6°F34.8°C -163.3°F-108.5°C - 1.4 mph N2.3 kmh N 4.0 mph6.4 kmh 29.61 in1002.7 mb 0.00 in0.0 mm 0.00 in0.0 mm 0.00 in0.0 mm
04:36 PM 94.3°F34.6°C -163.4°F-108.6°C - Calm Calm 2.8 mph4.5 kmh 29.62 in1003.0 mb 0.00 in0.0 mm 0.00 in0.0 mm 0.00 in0.0 mm
04:47 PM 94.1°F34.5°C -163.4°F-108.6°C - 1.4 mph N2.3 kmh N 3.4 mph5.5 kmh 29.61 in1002.7 mb 0.00 in0.0 mm 0.00 in0.0 mm 0.00 in0.0 mm
05:03 PM 93.7°F34.3°C -163.4°F-108.6°C - 2.0 mph N3.2 kmh N 5.4 mph8.7 kmh 29.62 in1003.0 mb 0.00 in0.0 mm 0.00 in0.0 mm 0.00 in0.0 mm
05:19 PM 93.4°F34.1°C -163.5°F-108.6°C - 1.4 mph N2.3 kmh N 4.8 mph7.7 kmh 29.61 in1002.7 mb 0.00 in0.0 mm 0.00 in0.0 mm 0.00 in0.0 mm
05:35 PM 93.2°F34.0°C -163.5°F-108.6°C - 0.6 mph N1.0 kmh N 2.0 mph3.2 kmh 29.61 in1002.7 mb 0.00 in0.0 mm 0.00 in0.0 mm 0.00 in0.0 mm
05:51 PM 93.2°F34.0°C -163.5°F-108.6°C - Calm Calm 2.0 mph3.2 kmh 29.60 in1002.4 mb 0.00 in0.0 mm 0.00 in0.0 mm 0.00 in0.0 mm
06:07 PM 92.3°F33.5°C -163.6°F-108.7°C - Calm Calm 2.0 mph3.2 kmh 29.60 in1002.4 mb 0.00 in0.0 mm 0.00 in0.0 mm 0.00 in0.0 mm
06:17 PM 92.1°F33.4°C -163.6°F-108.7°C - 1.4 mph N2.3 kmh N 2.8 mph4.5 kmh 29.60 in1002.4 mb 0.00 in0.0 mm 0.00 in0.0 mm 0.00 in0.0 mm
06:33 PM 91.8°F33.2°C -163.6°F-108.7°C - Calm Calm 0.6 mph1.0 kmh 29.60 in1002.4 mb 0.00 in0.0 mm 0.00 in0.0 mm 0.00 in0.0 mm
06:49 PM 91.6°F33.1°C -163.6°F-108.7°C - 0.6 mph N1.0 kmh N 2.0 mph3.2 kmh 29.60 in1002.4 mb 0.00 in0.0 mm 0.00 in0.0 mm 0.00 in0.0 mm
07:05 PM 91.2°F32.9°C -163.7°F-108.7°C - 0.6 mph N1.0 kmh N 2.0 mph3.2 kmh 29.60 in1002.4 mb 0.00 in0.0 mm 0.00 in0.0 mm 0.00 in0.0 mm
07:21 PM 90.3°F32.4°C -163.8°F-108.8°C - 0.6 mph N1.0 kmh N 2.0 mph3.2 kmh 29.60 in1002.4 mb 0.00 in0.0 mm 0.00 in0.0 mm 0.00 in0.0 mm
07:32 PM 89.6°F32.0°C -163.8°F-108.8°C - Calm Calm 0.6 mph1.0 kmh 29.60 in1002.4 mb 0.00 in0.0 mm 0.00 in0.0 mm 0.00 in0.0 mm
07:48 PM 87.8°F31.0°C -164.0°F-108.9°C - Calm Calm 2.0 mph3.2 kmh 29.60 in1002.4 mb 0.00 in0.0 mm 0.00 in0.0 mm 0.00 in0.0 mm
08:04 PM 87.3°F30.7°C -164.1°F-108.9°C - 0.6 mph N1.0 kmh N 2.0 mph3.2 kmh 29.60 in1002.4 mb 0.00 in0.0 mm 0.00 in0.0 mm 0.00 in0.0 mm
08:20 PM 86.5°F30.3°C -164.1°F-108.9°C - 0.6 mph N1.0 kmh N 3.4 mph5.5 kmh 29.60 in1002.4 mb 0.00 in0.0 mm 0.00 in0.0 mm 0.00 in0.0 mm
08:36 PM 86.2°F30.1°C -164.2°F-109.0°C - 1.4 mph N2.3 kmh N 3.4 mph5.5 kmh 29.60 in1002.4 mb 0.00 in0.0 mm 0.00 in0.0 mm 0.00 in0.0 mm
08:47 PM 86.2°F30.1°C -164.2°F-109.0°C - 1.4 mph N2.3 kmh N 3.4 mph5.5 kmh 29.59 in1002.0 mb 0.00 in0.0 mm 0.00 in0.0 mm 0.00 in0.0 mm
09:03 PM 86.2°F30.1°C -164.2°F-109.0°C - 1.4 mph N2.3 kmh N 2.8 mph4.5 kmh 29.59 in1002.0 mb 0.00 in0.0 mm 0.00 in0.0 mm 0.00 in0.0 mm
09:19 PM 85.6°F29.8°C -164.2°F-109.0°C - 0.6 mph N1.0 kmh N 4.0 mph6.4 kmh 29.58 in1001.7 mb 0.00 in0.0 mm 0.00 in0.0 mm 0.00 in0.0 mm
09:35 PM 84.6°F29.2°C -164.3°F-109.1°C - 0.6 mph N1.0 kmh N 3.4 mph5.5 kmh 29.58 in1001.7 mb 0.00 in0.0 mm 0.00 in0.0 mm 0.00 in0.0 mm
09:51 PM 84.0°F28.9°C -164.4°F-109.1°C - Calm Calm 0.6 mph1.0 kmh 29.58 in1001.7 mb 0.00 in0.0 mm 0.00 in0.0 mm 0.00 in0.0 mm
10:07 PM 83.5°F28.6°C -164.5°F-109.2°C - 0.6 mph N1.0 kmh N 2.8 mph4.5 kmh 29.58 in1001.7 mb 0.00 in0.0 mm 0.00 in0.0 mm 0.00 in0.0 mm
10:17 PM 82.9°F28.3°C -164.5°F-109.2°C - 1.4 mph N2.3 kmh N 4.0 mph6.4 kmh 29.58 in1001.7 mb 0.00 in0.0 mm 0.00 in0.0 mm 0.00 in0.0 mm
10:33 PM 82.6°F28.1°C -164.5°F-109.2°C - Calm Calm 2.0 mph3.2 kmh 29.57 in1001.4 mb 0.00 in0.0 mm 0.00 in0.0 mm 0.00 in0.0 mm
10:49 PM 82.4°F28.0°C -164.6°F-109.2°C - 1.4 mph N2.3 kmh N 4.0 mph6.4 kmh 29.57 in1001.4 mb 0.00 in0.0 mm 0.00 in0.0 mm 0.00 in0.0 mm
11:05 PM 82.2°F27.9°C -164.6°F-109.2°C - 0.6 mph N1.0 kmh N 2.8 mph4.5 kmh 29.56 in1001.0 mb 0.00 in0.0 mm 0.00 in0.0 mm 0.00 in0.0 mm
11:21 PM 81.7°F27.6°C -164.6°F-109.2°C - Calm Calm 0.6 mph1.0 kmh 29.56 in1001.0 mb 0.00 in0.0 mm 0.00 in0.0 mm 0.00 in0.0 mm
11:32 PM 81.3°F27.4°C -164.7°F-109.3°C - Calm Calm 1.4 mph2.3 kmh 29.56 in1001.0 mb 0.00 in0.0 mm 0.00 in0.0 mm 0.00 in0.0 mm
11:48 PM 80.6°F27.0°C -164.7°F-109.3°C - 0.6 mph N1.0 kmh N 2.0 mph3.2 kmh 29.57 in1001.4 mb 0.00 in0.0 mm 0.00 in0.0 mm 0.00 in0.0 mm